createdAt,value
2018-06-10T00:00:20.211Z,20.20
2018-06-10T00:02:48.998Z,21.00
2018-06-10T00:05:19.053Z,20.30
2018-06-10T00:07:48.967Z,20.40
2018-06-10T00:10:21.922Z,20.70
2018-06-10T00:12:49.594Z,20.63
2018-06-10T00:15:21.008Z,21.77
2018-06-10T00:17:53.117Z,22.97
2018-06-10T00:20:21.839Z,21.83
2018-06-10T00:22:49.644Z,22.33
2018-06-10T00:25:17.734Z,24.23
2018-06-10T00:27:47.490Z,24.20
2018-06-10T00:30:18.812Z,24.07
2018-06-10T00:32:50.339Z,23.77
2018-06-10T00:35:18.740Z,23.40
2018-06-10T00:37:51.384Z,25.40
2018-06-10T00:40:21.232Z,25.40
2018-06-10T00:42:49.097Z,25.87
2018-06-10T00:45:16.864Z,27.00
2018-06-10T00:47:45.464Z,26.43
2018-06-10T00:50:13.641Z,27.27
2018-06-10T00:52:41.789Z,24.53
2018-06-10T00:55:11.305Z,26.17
2018-06-10T00:57:48.657Z,24.63
2018-06-10T01:00:18.397Z,26.20
2018-06-10T01:03:06.312Z,27.40
2018-06-10T01:05:34.327Z,24.23
2018-06-10T01:08:04.127Z,26.50
2018-06-10T01:10:36.739Z,26.17
2018-06-10T01:13:05.595Z,25.00
2018-06-10T01:15:38.223Z,25.27
2018-06-10T01:18:07.304Z,25.40
2018-06-10T01:20:37.439Z,25.20
2018-06-10T01:23:09.329Z,28.23
2018-06-10T01:25:37.949Z,28.10
2018-06-10T01:28:05.992Z,29.73
2018-06-10T01:30:37.928Z,29.00
2018-06-10T01:33:05.908Z,26.40
2018-06-10T01:35:41.794Z,23.27
2018-06-10T01:38:09.504Z,27.47
2018-06-10T01:40:47.210Z,23.23
2018-06-10T01:43:15.055Z,26.70
2018-06-10T01:45:43.450Z,24.17
2018-06-10T01:48:11.757Z,28.03
2018-06-10T01:50:39.926Z,24.93
2018-06-10T01:53:09.046Z,25.87
2018-06-10T01:55:37.109Z,25.23
2018-06-10T01:58:05.812Z,28.07
2018-06-10T02:00:46.410Z,29.13
2018-06-10T02:03:18.028Z,33.23
2018-06-10T02:05:46.091Z,35.30
2018-06-10T02:08:18.178Z,35.57
2018-06-10T02:10:48.575Z,36.40
2018-06-10T02:13:30.865Z,35.73
2018-06-10T02:16:01.079Z,28.40
2018-06-10T02:18:32.497Z,32.27
2018-06-10T02:21:01.382Z,36.50
2018-06-10T02:23:31.305Z,33.77
2018-06-10T02:26:01.384Z,29.70
2018-06-10T02:28:31.148Z,27.53
2018-06-10T02:31:07.145Z,29.57
2018-06-10T02:33:42.381Z,33.33
2018-06-10T02:36:15.030Z,33.73
2018-06-10T02:38:45.371Z,32.57
2018-06-10T02:41:15.682Z,33.87
2018-06-10T02:43:47.569Z,31.30
2018-06-10T02:46:16.601Z,31.50
2018-06-10T02:48:49.217Z,30.40
2018-06-10T02:51:17.045Z,30.07
2018-06-10T02:54:02.488Z,28.60
2018-06-10T02:56:37.256Z,27.80
2018-06-10T02:59:06.521Z,27.03
2018-06-10T03:01:45.365Z,28.17
2018-06-10T03:04:15.291Z,25.50
2018-06-10T03:06:43.408Z,27.83
2018-06-10T03:09:16.220Z,26.90
2018-06-10T03:11:44.659Z,25.53
2018-06-10T03:14:13.936Z,26.27
2018-06-10T03:16:48.043Z,26.47
2018-06-10T03:19:34.801Z,25.53
2018-06-10T03:22:14.764Z,26.00
2018-06-10T03:24:42.729Z,28.70
2018-06-10T03:27:20.586Z,30.03
2018-06-10T03:29:53.825Z,26.30
2018-06-10T03:32:23.554Z,25.73
2018-06-10T03:34:51.434Z,27.27
2018-06-10T03:37:20.181Z,25.73
2018-06-10T03:39:48.036Z,28.83
2018-06-10T03:42:20.191Z,29.80
2018-06-10T03:44:49.320Z,28.87
2018-06-10T03:47:25.076Z,28.33
2018-06-10T03:49:53.073Z,32.33
2018-06-10T03:52:21.719Z,28.07
2018-06-10T03:54:59.129Z,27.50
2018-06-10T03:57:45.442Z,28.03
2018-06-10T04:00:14.512Z,28.47
2018-06-10T04:02:46.925Z,27.27
2018-06-10T04:05:19.238Z,34.77
2018-06-10T04:07:51.558Z,38.00
2018-06-10T04:10:23.312Z,35.00
2018-06-10T04:12:51.509Z,30.00
2018-06-10T04:15:19.848Z,28.60
2018-06-10T04:17:57.912Z,32.80
2018-06-10T04:20:27.348Z,38.87
2018-06-10T04:22:55.441Z,43.03
2018-06-10T04:25:24.113Z,40.70
2018-06-10T04:27:55.635Z,42.50
2018-06-10T04:33:24.304Z,43.97
2018-06-10T04:35:54.974Z,46.30
2018-06-10T04:38:40.029Z,47.70
2018-06-10T04:41:11.096Z,47.90
2018-06-10T04:43:43.452Z,49.03
2018-06-10T04:46:11.692Z,47.70
2018-06-10T04:48:40.875Z,49.30
2018-06-10T04:51:31.492Z,48.67
2018-06-10T04:53:59.877Z,48.07
2018-06-10T04:56:30.077Z,41.17
2018-06-10T04:58:59.861Z,36.90
2018-06-10T05:01:34.300Z,49.47
2018-06-10T05:07:07.040Z,53.30
2018-06-10T05:09:34.960Z,53.20
2018-06-10T05:12:03.877Z,51.13
2018-06-10T05:14:36.061Z,48.53
2018-06-10T05:17:04.029Z,52.40
2018-06-10T05:19:47.893Z,51.70
2018-06-10T05:22:18.847Z,47.33
2018-06-10T05:25:03.259Z,51.70
2018-06-10T05:27:35.250Z,47.47
2018-06-10T05:33:14.723Z,50.50
2018-06-10T05:53:09.448Z,47.47
2018-06-10T06:03:39.233Z,52.40
2018-06-10T06:06:11.468Z,48.70
2018-06-10T06:08:40.957Z,46.93
2018-06-10T06:11:12.513Z,48.33
2018-06-10T06:13:41.911Z,47.87
2018-06-10T06:16:11.288Z,43.77
2018-06-10T06:18:43.402Z,45.47
2018-06-10T06:24:13.547Z,43.90
2018-06-10T06:26:41.565Z,44.07
2018-06-10T06:29:11.523Z,44.80
2018-06-10T06:31:40.897Z,45.60
2018-06-10T06:34:11.644Z,44.77
2018-06-10T06:36:40.994Z,45.80
2018-06-10T06:39:11.266Z,45.93
2018-06-10T06:41:42.347Z,44.60
2018-06-10T06:44:10.503Z,50.27
2018-06-10T06:46:42.283Z,50.53
2018-06-10T06:49:10.769Z,49.00
2018-06-10T06:51:42.224Z,49.70
2018-06-10T06:54:11.927Z,51.97
2018-06-10T06:56:41.450Z,54.30
2018-06-10T06:59:11.191Z,53.60
2018-06-10T07:04:41.982Z,52.17
2018-06-10T07:07:11.202Z,52.77
2018-06-10T07:09:42.351Z,51.13
2018-06-10T07:15:11.679Z,50.10
2018-06-10T07:17:42.358Z,49.10
2018-06-10T07:20:11.534Z,48.27
2018-06-10T07:22:39.548Z,47.47
2018-06-10T07:25:07.285Z,48.93
2018-06-10T07:27:34.994Z,45.97
2018-06-10T07:30:02.958Z,46.60
2018-06-10T07:32:30.602Z,45.60
2018-06-10T07:34:58.272Z,45.93
2018-06-10T07:37:27.031Z,43.43
2018-06-10T07:39:55.781Z,44.27
2018-06-10T07:42:23.449Z,36.80
2018-06-10T07:44:51.144Z,37.83
2018-06-10T07:47:18.803Z,41.80
2018-06-10T07:49:46.398Z,40.67
2018-06-10T07:52:15.033Z,37.00
2018-06-10T07:54:42.709Z,34.57
2018-06-10T07:57:10.379Z,30.90
2018-06-10T07:59:39.221Z,33.20
2018-06-10T08:02:09.676Z,32.43
2018-06-10T08:04:37.281Z,33.90
2018-06-10T08:07:04.882Z,36.63
2018-06-10T08:09:32.699Z,34.80
2018-06-10T08:12:00.505Z,30.70
2018-06-10T08:14:28.264Z,27.50
2018-06-10T08:16:55.902Z,27.10
2018-06-10T08:19:23.672Z,26.20
2018-06-10T08:21:55.200Z,28.73
2018-06-10T08:24:22.923Z,27.80
2018-06-10T08:26:50.647Z,28.07
2018-06-10T08:29:18.483Z,27.63
2018-06-10T08:31:47.140Z,28.47
2018-06-10T08:34:15.042Z,27.13
2018-06-10T08:36:43.192Z,27.90
2018-06-10T08:39:11.928Z,24.77
2018-06-10T08:41:40.154Z,23.30
2018-06-10T08:44:08.643Z,25.80
2018-06-10T08:46:36.459Z,22.20
2018-06-10T08:49:06.978Z,20.50
2018-06-10T08:51:35.163Z,23.73
2018-06-10T08:54:03.868Z,22.93
2018-06-10T08:56:32.458Z,22.43
2018-06-10T08:59:02.780Z,22.33
2018-06-10T09:01:30.809Z,22.70
2018-06-10T09:03:58.930Z,22.40
2018-06-10T09:06:27.067Z,20.87
2018-06-10T09:08:55.263Z,19.23
2018-06-10T09:11:39.791Z,22.50
2018-06-10T09:14:09.916Z,20.27
2018-06-10T09:16:40.326Z,23.20
2018-06-10T09:19:08.202Z,21.13
2018-06-10T09:21:36.196Z,20.37
2018-06-10T09:24:05.199Z,20.27
2018-06-10T09:26:38.682Z,19.93
2018-06-10T09:29:10.494Z,22.10
2018-06-10T09:31:41.568Z,19.20
2018-06-10T09:34:12.679Z,19.43
2018-06-10T09:36:41.508Z,19.90
2018-06-10T09:39:10.976Z,17.57
2018-06-10T09:41:42.580Z,17.80
2018-06-10T09:44:11.448Z,15.90
2018-06-10T09:46:57.714Z,18.73
2018-06-10T09:49:41.155Z,16.93
2018-06-10T09:52:12.673Z,16.50
2018-06-10T09:57:41.100Z,14.20
2018-06-10T10:06:39.013Z,13.23
2018-06-10T10:09:35.076Z,13.97
2018-06-10T10:12:03.450Z,12.90
2018-06-10T10:14:52.205Z,13.87
2018-06-10T10:17:22.108Z,14.40
2018-06-10T10:19:49.891Z,13.40
2018-06-10T10:22:28.755Z,13.13
2018-06-10T10:25:01.297Z,14.50
2018-06-10T10:27:31.218Z,14.30
2018-06-10T10:30:18.880Z,15.00
2018-06-10T10:32:51.229Z,13.50
2018-06-10T10:35:19.016Z,14.70
2018-06-10T10:37:52.557Z,14.13
2018-06-10T10:40:20.514Z,13.80
2018-06-10T10:42:50.957Z,13.30
2018-06-10T10:45:22.034Z,12.03
2018-06-10T10:47:50.814Z,13.00
2018-06-10T10:50:19.833Z,13.30
2018-06-10T10:52:51.379Z,13.63
2018-06-10T10:58:23.121Z,12.97
2018-06-10T11:04:09.362Z,13.07
2018-06-10T11:06:41.312Z,11.40
2018-06-10T11:09:17.303Z,10.07
2018-06-10T11:11:46.072Z,10.00
2018-06-10T11:14:14.681Z,11.43
2018-06-10T11:16:44.180Z,10.87
2018-06-10T11:19:19.916Z,10.60
2018-06-10T11:21:50.951Z,10.53
2018-06-10T11:24:22.283Z,9.73
2018-06-10T11:26:53.976Z,10.13
2018-06-10T11:29:22.036Z,10.70
2018-06-10T11:31:50.835Z,10.10
2018-06-10T11:37:34.036Z,12.23
2018-06-10T11:40:05.459Z,12.60
2018-06-10T11:42:35.991Z,12.87
2018-06-10T11:45:03.715Z,12.50
2018-06-10T11:47:35.172Z,11.20
2018-06-10T11:50:04.126Z,10.33
2018-06-10T11:52:32.782Z,9.63
2018-06-10T11:55:03.116Z,9.20
2018-06-10T11:57:34.514Z,9.97
2018-06-10T12:00:02.796Z,11.43
2018-06-10T12:02:34.342Z,10.00
2018-06-10T12:05:02.768Z,10.47
2018-06-10T12:07:30.706Z,10.67
2018-06-10T12:09:58.959Z,9.97
2018-06-10T12:12:33.574Z,12.23
2018-06-10T12:15:03.627Z,11.40
2018-06-10T12:17:32.201Z,10.87
2018-06-10T12:20:03.762Z,9.47
2018-06-10T12:22:33.333Z,9.50
2018-06-10T12:25:01.212Z,9.43
2018-06-10T12:27:30.083Z,11.93
2018-06-10T12:29:58.437Z,11.20
2018-06-10T12:32:26.163Z,10.97
2018-06-10T12:34:56.155Z,10.90
2018-06-10T12:37:23.851Z,9.73
2018-06-10T12:39:51.648Z,10.30
2018-06-10T12:42:19.271Z,10.60
2018-06-10T12:44:46.960Z,10.63
2018-06-10T12:47:14.706Z,10.03
2018-06-10T12:49:42.338Z,11.30
2018-06-10T12:52:10.723Z,11.87
2018-06-10T12:54:38.615Z,10.47
2018-06-10T12:57:06.356Z,10.77
2018-06-10T12:59:34.579Z,10.93
2018-06-10T13:02:02.528Z,10.80
2018-06-10T13:04:30.491Z,10.33
2018-06-10T13:06:58.176Z,11.23
2018-06-10T13:09:25.990Z,10.30
2018-06-10T13:11:55.029Z,11.23
2018-06-10T13:14:22.757Z,10.80
2018-06-10T13:16:50.381Z,10.83
2018-06-10T13:19:17.977Z,9.80
2018-06-10T13:21:45.574Z,9.93
2018-06-10T13:24:13.246Z,9.80
2018-06-10T13:26:40.818Z,9.70
2018-06-10T13:29:08.466Z,9.90
2018-06-10T13:31:36.526Z,10.00
2018-06-10T13:34:04.291Z,9.87
2018-06-10T13:36:32.669Z,10.40
2018-06-10T13:39:00.741Z,9.37
2018-06-10T13:41:29.485Z,8.87
2018-06-10T13:43:58.419Z,10.27
2018-06-10T13:46:26.110Z,9.83
2018-06-10T13:48:54.158Z,10.40
2018-06-10T13:51:23.938Z,10.73
2018-06-10T13:54:00.774Z,10.20
2018-06-10T13:56:28.817Z,10.47
2018-06-10T13:58:57.279Z,10.33
2018-06-10T14:01:29.467Z,11.40
2018-06-10T14:03:58.883Z,11.00
2018-06-10T14:06:31.664Z,10.83
2018-06-10T14:08:59.396Z,11.03
2018-06-10T14:11:27.081Z,10.77
2018-06-10T14:13:54.850Z,12.70
2018-06-10T14:16:22.661Z,11.40
2018-06-10T14:18:50.994Z,10.10
2018-06-10T14:21:27.262Z,11.40
2018-06-10T14:23:55.049Z,9.97
2018-06-10T14:26:27.805Z,8.90
2018-06-10T14:28:56.596Z,9.20
2018-06-10T14:31:32.426Z,9.87
2018-06-10T14:34:17.261Z,9.23
2018-06-10T14:36:49.543Z,10.10
2018-06-10T14:39:28.520Z,9.60
2018-06-10T14:41:56.248Z,11.30
2018-06-10T14:44:23.998Z,9.80
2018-06-10T14:46:52.345Z,10.43
2018-06-10T14:49:20.234Z,10.40
2018-06-10T14:51:48.064Z,9.00
2018-06-10T14:54:15.697Z,10.00
2018-06-10T14:56:47.002Z,10.00
2018-06-10T14:59:15.740Z,10.07
2018-06-10T15:01:43.527Z,9.70
2018-06-10T15:04:23.344Z,8.50
2018-06-10T15:06:55.354Z,10.40
2018-06-10T15:09:23.090Z,9.53
2018-06-10T15:11:50.761Z,8.30
2018-06-10T15:14:18.592Z,7.87
2018-06-10T15:16:46.257Z,9.10
2018-06-10T15:19:14.946Z,9.33
2018-06-10T15:21:42.707Z,8.70
2018-06-10T15:24:10.616Z,8.90
2018-06-10T15:26:38.239Z,7.50
2018-06-10T15:29:05.770Z,8.20
2018-06-10T15:31:33.466Z,8.10
2018-06-10T15:34:01.158Z,7.97
2018-06-10T15:36:29.967Z,9.17
2018-06-10T15:38:57.670Z,7.50
2018-06-10T15:41:29.094Z,8.07
2018-06-10T15:43:56.820Z,8.43
2018-06-10T15:46:24.387Z,8.63
2018-06-10T15:48:51.976Z,8.00
2018-06-10T15:51:19.530Z,8.03
2018-06-10T15:53:47.191Z,8.33
2018-06-10T15:56:15.412Z,8.63
2018-06-10T15:58:44.106Z,8.27
2018-06-10T16:01:12.318Z,9.17
2018-06-10T16:03:40.050Z,9.20
2018-06-10T16:06:09.669Z,9.30
2018-06-10T16:08:37.442Z,9.00
2018-06-10T16:11:06.204Z,9.43
2018-06-10T16:13:33.880Z,9.53
2018-06-10T16:16:01.441Z,10.00
2018-06-10T16:18:29.556Z,9.37
2018-06-10T16:20:57.304Z,8.50
2018-06-10T16:23:24.958Z,8.40
2018-06-10T16:25:53.779Z,9.07
2018-06-10T16:28:22.487Z,7.70
2018-06-10T16:30:55.424Z,9.43
2018-06-10T16:33:25.422Z,8.13
2018-06-10T16:35:53.458Z,7.80
2018-06-10T16:38:21.258Z,7.73
2018-06-10T16:40:52.125Z,8.20
2018-06-10T16:43:19.882Z,8.53
2018-06-10T16:45:47.849Z,8.10
2018-06-10T16:48:17.755Z,9.73
2018-06-10T16:50:45.369Z,9.10
2018-06-10T16:53:13.189Z,9.97
2018-06-10T16:55:40.896Z,9.93
2018-06-10T16:58:08.700Z,8.83
2018-06-10T17:00:36.281Z,9.40
2018-06-10T17:03:04.057Z,11.23
2018-06-10T17:05:32.451Z,9.50
2018-06-10T17:08:00.057Z,9.97
2018-06-10T17:10:27.932Z,12.13
2018-06-10T17:12:55.792Z,12.37
2018-06-10T17:15:23.503Z,13.60
2018-06-10T17:17:51.079Z,12.70
2018-06-10T17:20:18.709Z,13.70
2018-06-10T17:22:46.290Z,12.30
2018-06-10T17:25:17.239Z,11.53
2018-06-10T17:27:44.840Z,10.57
2018-06-10T17:30:12.579Z,10.03
2018-06-10T17:32:41.232Z,8.90
2018-06-10T17:35:08.912Z,8.80
2018-06-10T17:37:36.630Z,9.20
2018-06-10T17:40:07.497Z,8.90
2018-06-10T17:42:35.767Z,8.80
2018-06-10T17:45:03.450Z,9.60
2018-06-10T17:47:31.147Z,9.97
2018-06-10T17:49:58.923Z,10.33
2018-06-10T17:52:26.622Z,9.33
2018-06-10T17:54:54.900Z,10.10
2018-06-10T17:57:23.185Z,8.60
2018-06-10T17:59:51.556Z,10.00
2018-06-10T18:02:19.272Z,9.70
2018-06-10T18:04:46.905Z,9.27
2018-06-10T18:07:14.641Z,8.87
2018-06-10T18:09:56.975Z,9.70
2018-06-10T18:12:24.690Z,10.03
2018-06-10T18:14:53.361Z,10.00
2018-06-10T18:17:22.194Z,10.30
2018-06-10T18:19:55.536Z,10.13
2018-06-10T18:22:23.267Z,10.00
2018-06-10T18:24:55.435Z,9.00
2018-06-10T18:27:23.695Z,9.67
2018-06-10T18:29:51.437Z,12.80
2018-06-10T18:32:19.769Z,10.30
2018-06-10T18:34:47.577Z,10.03
2018-06-10T18:37:19.961Z,10.20
2018-06-10T18:39:47.687Z,10.13
2018-06-10T18:42:16.019Z,12.10
2018-06-10T18:44:43.882Z,11.47
2018-06-10T18:47:11.597Z,12.10
2018-06-10T18:49:39.278Z,12.27
2018-06-10T18:52:07.088Z,11.87
2018-06-10T18:54:36.477Z,12.87
2018-06-10T18:57:04.095Z,12.80
2018-06-10T18:59:31.806Z,13.73
2018-06-10T19:01:59.370Z,15.03
2018-06-10T19:04:27.064Z,12.60
2018-06-10T19:06:54.772Z,12.73
2018-06-10T19:09:22.620Z,11.07
2018-06-10T19:11:52.013Z,10.63
2018-06-10T19:14:23.215Z,10.90
2018-06-10T19:16:51.617Z,11.03
2018-06-10T19:19:25.318Z,10.60
2018-06-10T19:21:54.164Z,11.60
2018-06-10T19:24:22.077Z,10.77
2018-06-10T19:26:50.661Z,11.37
2018-06-10T19:29:33.083Z,9.97
2018-06-10T19:32:08.365Z,12.13
2018-06-10T19:34:36.180Z,10.10
2018-06-10T19:37:07.711Z,10.90
2018-06-10T19:39:35.740Z,9.63
2018-06-10T19:42:07.544Z,8.93
2018-06-10T19:44:35.829Z,10.47
2018-06-10T19:47:06.677Z,10.40
2018-06-10T19:49:38.072Z,9.97
2018-06-10T19:52:06.755Z,9.90
2018-06-10T19:54:35.687Z,9.77
2018-06-10T19:57:07.164Z,13.27
2018-06-10T19:59:35.559Z,13.70
2018-06-10T20:02:07.737Z,33.63
2018-06-10T20:04:37.838Z,12.57
2018-06-10T20:07:07.334Z,11.47
2018-06-10T20:09:35.708Z,10.33
2018-06-10T20:12:05.081Z,11.47
2018-06-10T20:14:35.898Z,10.70
2018-06-10T20:17:14.154Z,10.00
2018-06-10T20:19:45.740Z,12.40
2018-06-10T20:22:15.500Z,10.30
2018-06-10T20:24:44.123Z,14.70
2018-06-10T20:27:11.795Z,39.03
2018-06-10T20:29:39.687Z,11.53
2018-06-10T20:32:07.472Z,66.33
2018-06-10T20:34:35.112Z,11.83
2018-06-10T20:37:05.201Z,11.50
2018-06-10T20:39:32.808Z,11.37
2018-06-10T20:42:00.645Z,10.93
2018-06-10T20:44:34.877Z,10.90
2018-06-10T20:47:03.139Z,9.33
2018-06-10T20:49:32.524Z,11.17
2018-06-10T20:52:00.187Z,9.30
2018-06-10T20:54:27.812Z,9.20
2018-06-10T20:57:00.406Z,8.83
2018-06-10T20:59:28.270Z,8.63
2018-06-10T21:01:56.861Z,8.27
2018-06-10T21:04:24.567Z,8.80
2018-06-10T21:06:52.668Z,7.87
2018-06-10T21:09:20.367Z,8.43
2018-06-10T21:11:47.984Z,8.70
2018-06-10T21:14:15.696Z,7.57
2018-06-10T21:16:43.198Z,8.60
2018-06-10T21:19:10.791Z,8.30
2018-06-10T21:21:39.550Z,8.97
2018-06-10T21:24:07.327Z,8.53
2018-06-10T21:26:35.144Z,8.83
2018-06-10T21:29:02.906Z,9.67
2018-06-10T21:31:30.575Z,8.10
2018-06-10T21:33:58.136Z,8.33
2018-06-10T21:36:26.009Z,7.93
2018-06-10T21:38:53.737Z,7.90
2018-06-10T21:41:21.599Z,9.40
2018-06-10T21:43:49.228Z,8.00
2018-06-10T21:46:16.846Z,8.50
2018-06-10T21:48:44.576Z,8.93
2018-06-10T21:51:12.263Z,9.10
2018-06-10T21:53:39.903Z,8.97
2018-06-10T21:56:07.635Z,8.50
2018-06-10T21:58:35.228Z,8.43
2018-06-10T22:01:03.070Z,9.33
2018-06-10T22:03:30.650Z,7.73
2018-06-10T22:05:58.226Z,8.47
2018-06-10T22:08:25.758Z,9.07
2018-06-10T22:10:53.554Z,29.40
2018-06-10T22:13:21.196Z,9.10
2018-06-10T22:15:48.882Z,8.87
2018-06-10T22:18:17.540Z,10.50
2018-06-10T22:20:45.231Z,10.50
2018-06-10T22:23:12.851Z,26.20
2018-06-10T22:25:40.580Z,12.10
2018-06-10T22:28:18.300Z,13.47
2018-06-10T22:30:46.035Z,12.33
2018-06-10T22:33:14.304Z,12.30
2018-06-10T22:35:42.083Z,13.63
2018-06-10T22:38:09.830Z,14.00
2018-06-10T22:40:37.492Z,13.60
2018-06-10T22:43:05.519Z,14.00
2018-06-10T22:45:33.226Z,14.07
2018-06-10T22:48:00.816Z,15.20
2018-06-10T22:50:28.724Z,15.60
2018-06-10T22:55:07.667Z,12.90
2018-06-10T22:57:35.290Z,13.97
2018-06-10T23:00:03.336Z,15.40
2018-06-10T23:02:32.383Z,16.07
2018-06-10T23:05:00.383Z,16.83
2018-06-10T23:07:29.235Z,18.23
2018-06-10T23:09:56.885Z,15.50
2018-06-10T23:12:24.553Z,16.10
2018-06-10T23:14:52.098Z,17.10
2018-06-10T23:17:19.863Z,16.43
2018-06-10T23:19:47.458Z,17.73
2018-06-10T23:22:18.915Z,17.80
2018-06-10T23:24:46.530Z,17.73
2018-06-10T23:27:20.850Z,18.80
2018-06-10T23:29:48.984Z,21.07
2018-06-10T23:32:16.834Z,18.37
2018-06-10T23:34:48.250Z,18.60
2018-06-10T23:37:16.804Z,19.30
2018-06-10T23:39:44.382Z,19.10
2018-06-10T23:42:12.371Z,18.60
2018-06-10T23:44:39.954Z,21.00
2018-06-10T23:47:07.615Z,21.60
2018-06-10T23:49:35.153Z,20.93
2018-06-10T23:52:02.807Z,21.20
2018-06-10T23:54:31.738Z,20.93
2018-06-10T23:56:59.446Z,20.97
2018-06-10T23:59:27.100Z,21.80
